Startpagina
METAR-TAF:

METAR-TAF

Vliegvelden :

Charleroi, België

Brussels South Charleroi Airport

breedte: 50-28N, lengte: 004-27E, hoogte: 187 m

Actueel weer

Dit bericht is 14 minuten geleden gemaakt, om 10:50 UTC
Wind 10 kt uit het oosten, variërend tussen het noordoosten en het oostzuidoosten
Temperatuur 24°C
Vochtigheid 41%
Druk 1020 hPa
Zicht 10 km of meer
geen wolken onder 1500 m en geen cumulonimbus

METAR: EBCI 261050Z 08010KT 050V110 CAVOK 24/10 Q1020 NOSIG

Tijdstip: 13:04 (11:04 UTC)

Verwachting

Dit bericht is 6 uur en het 4 minuten geleden gemaakt, om 05:00 UTC
Verwachting geldig van 26 om 06 UTC tot 27 om 12 UTC
Wind 9 kt uit het oosten
Zicht 10 km of meer
geen wolken onder 1500 m en geen cumulonimbus
Wijzigt naar
van 27 om 08 UTC tot 27 om 10 UTC
Wind 10 kt uit het zuidzuidoosten

TAF: EBCI 260500Z 2606/2712 09009KT CAVOK BECMG 2708/2710 15010KT

Waarnemingen en weersverwachtingen van meer dan 4000 vliegvelden (METAR en TAF).

De beschikbare stations zijn de gele en rode punten op de kaart.

Ga met uw muis naar het station om de naam te zien.

Klik dan om waarnemingen en weersverwachtingen te zien.

kaart wijzigen: klik op de groene knoppen met een zwart kruis om in te zoomen, op de groene knop met een streepje om uit te zoomen of op de groene pijlen voor aangrenzende kaarten.


METAR-TAF: